You are not logged in, Click here to log in
漢堡機場 HAM / EDDH 德國 漢堡
ICAO: EDDH Country: 德國 漢堡
Latitude: 53.6304 Longitude: 9.98823
Total Arrivals: 5 Total Departures: 5
Latest Arrival: FS9033 (EDDN-EDDH)Arthur. Kung Latest Departure: FS9034 (EDDH-ESSA)Arthur. Kung
Scenery:
METAR : EDDH 110450Z 23005KT 200V270 9999 -SHRA FEW022 SCT027 11/10 Q1020 NOSIG

漢堡機場 HAM